Time;durP1;ratioP1;P1;durP2;ratioP2;P2;SDS_P1;SDS_P2;PMS_P1;PMS_P2;Temp;Humidity;BMP_temperature;BMP_pressure;BME280_temperature;BME280_humidity;BME280_pressure;Samples;Min_cycle;Max_cycle;Signal;HPM_P1;HPM_P2
2022/12/18 00:02:15;;;;;;;49.05;26.42;;;;;;;-5.07;81.71;101879.57;3308026;82;21576;-73
2022/12/18 00:07:07;;;;;;;50.43;24.80;;;;;;;-5.08;81.77;101886.30;3397197;82;20971;-73
2022/12/18 00:11:58;;;;;;;39.73;21.57;;;;;;;-5.06;81.68;101896.56;3373333;83;21058;-73
2022/12/18 00:16:49;;;;;;;50.05;24.70;;;;;;;-5.07;81.62;101904.55;3288857;84;21175;-72
2022/12/18 00:21:42;;;;;;;50.10;27.45;;;;;;;-5.06;81.78;101910.16;3301849;84;27404;-73
2022/12/18 00:26:35;;;;;;;45.15;23.47;;;;;;;-5.04;81.76;101911.20;3347381;84;20951;-73
2022/12/18 00:31:26;;;;;;;46.53;24.25;;;;;;;-5.03;81.86;101920.59;3334672;83;20951;-73
2022/12/18 00:36:23;;;;;;;43.40;22.00;;;;;;;-4.99;81.89;101926.51;3351326;84;21070;-73
2022/12/18 00:42:55;;;;;;;44.15;23.67;;;;;;;-4.99;81.86;101926.51;3383196;84;21015;-73
2022/12/18 00:46:11;;;;;;;53.23;26.45;;;;;;;-4.93;82.00;101946.89;3351657;84;21148;-73
2022/12/18 00:51:02;;;;;;;48.75;26.30;;;;;;;-4.90;82.01;101945.89;3340061;83;21094;-72
2022/12/18 00:55:53;;;;;;;40.52;23.83;;;;;;;-4.89;81.86;101944.78;3385240;84;20990;-73
2022/12/18 01:00:44;;;;;;;38.10;21.12;;;;;;;-4.87;81.87;101942.40;3329261;83;20967;-73
2022/12/18 01:05:40;;;;;;;32.15;17.30;;;;;;;-4.90;81.44;101954.77;3374000;83;21115;-73
2022/12/18 01:10:31;;;;;;;39.75;21.02;;;;;;;-4.95;81.69;101964.48;3322889;84;22032;-72
2022/12/18 01:15:23;;;;;;;40.50;21.73;;;;;;;-4.95;81.69;101962.30;3358209;84;20975;-72
2022/12/18 01:20:14;;;;;;;37.30;22.05;;;;;;;-4.95;81.68;101973.72;3319199;84;21010;-73
2022/12/18 01:25:06;;;;;;;31.35;18.02;;;;;;;-4.93;81.84;101980.75;3321444;84;20944;-72
2022/12/18 01:29:57;;;;;;;33.55;17.62;;;;;;;-4.92;81.58;101982.91;3316169;84;21033;-73
2022/12/18 01:34:48;;;;;;;31.90;19.50;;;;;;;-4.92;81.53;101987.98;3334843;83;27296;-73
2022/12/18 01:39:40;;;;;;;28.30;16.80;;;;;;;-4.94;81.51;101998.35;3349029;83;20970;-73
2022/12/18 01:45:02;;;;;;;28.45;17.75;;;;;;;-4.95;81.63;102004.16;3344130;83;20959;-73
2022/12/18 01:49:56;;;;;;;29.72;17.12;;;;;;;-4.94;81.66;102018.64;3313188;84;21014;-73
2022/12/18 01:54:50;;;;;;;28.62;17.45;;;;;;;-4.98;81.50;102025.94;3308754;84;21528;-72
2022/12/18 01:59:44;;;;;;;29.82;18.32;;;;;;;-4.98;81.67;102018.33;3314655;84;21264;-73
2022/12/18 02:04:35;;;;;;;28.50;16.12;;;;;;;-4.94;81.68;102027.53;3325340;84;21529;-73
2022/12/18 02:09:41;;;;;;;22.35;13.72;;;;;;;-4.95;81.58;102030.80;3286282;83;20990;-72
2022/12/18 02:15:01;;;;;;;32.53;16.90;;;;;;;-4.94;81.57;102040.21;3355248;84;20967;-72
2022/12/18 02:20:30;;;;;;;28.67;16.50;;;;;;;-4.95;81.74;102045.66;3385021;84;20975;-73
2022/12/18 02:26:04;;;;;;;29.77;18.25;;;;;;;-4.92;81.79;102058.63;3374278;84;22141;-72
2022/12/18 02:30:59;;;;;;;31.45;16.90;;;;;;;-4.90;81.79;102067.33;3366381;84;20959;-73
2022/12/18 02:35:55;;;;;;;32.48;17.60;;;;;;;-4.90;81.85;102072.75;3364353;84;20948;-72
2022/12/18 02:40:49;;;;;;;29.70;16.50;;;;;;;-4.87;81.92;102066.34;3334099;84;21034;-73
2022/12/18 02:45:56;;;;;;;21.82;14.10;;;;;;;-4.85;81.83;102076.27;3299865;83;21496;-73
2022/12/18 02:51:01;;;;;;;29.87;16.70;;;;;;;-4.84;81.77;102082.26;3396336;83;21102;-73
2022/12/18 02:56:10;;;;;;;28.00;14.87;;;;;;;-4.85;81.78;102090.60;3362037;83;20967;-72
2022/12/18 03:01:33;;;;;;;25.52;14.35;;;;;;;-4.81;81.94;102095.23;3369521;84;20967;-73
2022/12/18 03:06:32;;;;;;;24.35;13.83;;;;;;;-4.84;81.43;102097.48;3370231;83;21022;-73
2022/12/18 03:16:40;;;;;;;24.67;14.35;;;;;;;-4.88;81.18;102133.41;3360999;84;21145;-73
2022/12/18 03:21:36;;;;;;;23.55;13.58;;;;;;;-4.95;81.16;102129.73;3325560;83;21647;-73
2022/12/18 03:26:29;;;;;;;19.73;11.63;;;;;;;-4.99;81.14;102133.25;3355842;83;20928;-73
2022/12/18 03:31:26;;;;;;;19.20;10.48;;;;;;;-5.02;80.91;102136.73;3344389;85;21003;-72
2022/12/18 03:36:17;;;;;;;22.70;12.63;;;;;;;-5.03;80.88;102140.38;3334480;84;21255;-72
2022/12/18 03:41:37;;;;;;;26.15;14.43;;;;;;;-5.10;80.55;102145.56;3364494;85;21157;-73
2022/12/18 03:46:45;;;;;;;21.75;12.30;;;;;;;-5.12;80.68;102154.66;3337532;83;21510;-73
2022/12/18 03:51:44;;;;;;;23.47;13.50;;;;;;;-5.14;80.76;102178.59;3332149;84;21501;-73
2022/12/18 03:56:44;;;;;;;24.40;12.55;;;;;;;-5.15;80.74;102180.61;3278948;85;20963;-72
2022/12/18 04:01:40;;;;;;;20.35;11.28;;;;;;;-5.16;80.65;102173.73;3284465;86;21038;-73
2022/12/18 04:06:34;;;;;;;16.12;9.03;;;;;;;-5.17;80.69;102171.92;3251638;86;23065;-72
2022/12/18 04:11:26;;;;;;;23.18;13.03;;;;;;;-5.21;80.59;102183.38;3261680;86;21517;-73
2022/12/18 04:16:18;;;;;;;19.02;11.78;;;;;;;-5.21;80.59;102193.91;3313044;86;20982;-72
2022/12/18 04:21:11;;;;;;;19.50;10.32;;;;;;;-5.21;80.60;102195.17;3271318;86;21153;-73
2022/12/18 04:26:02;;;;;;;17.77;9.60;;;;;;;-5.25;80.33;102188.89;3218929;87;21476;-72
2022/12/18 04:31:12;;;;;;;17.73;10.78;;;;;;;-5.29;80.54;102201.08;3337749;83;21443;-72
2022/12/18 04:36:05;;;;;;;22.22;12.98;;;;;;;-5.28;80.68;102225.33;3452547;81;21023;-72
2022/12/18 04:40:57;;;;;;;20.17;12.53;;;;;;;-5.27;80.68;102217.38;3393623;83;21501;-73
2022/12/18 04:45:50;;;;;;;22.85;12.43;;;;;;;-5.24;80.79;102236.69;3382047;83;21423;-73
2022/12/18 04:50:41;;;;;;;21.10;12.58;;;;;;;-5.25;80.66;102242.14;3349860;82;21012;-72
2022/12/18 04:55:32;;;;;;;19.65;11.55;;;;;;;-5.25;80.66;102248.86;3362111;81;25654;-73
2022/12/18 05:00:23;;;;;;;23.53;12.17;;;;;;;-5.25;80.54;102253.92;3453440;81;22269;-72
2022/12/18 05:05:14;;;;;;;22.85;13.55;;;;;;;-5.25;80.60;102250.13;3362872;81;21178;-72
2022/12/18 05:10:06;;;;;;;17.52;10.70;;;;;;;-5.27;80.59;102258.83;3427504;82;20952;-73
2022/12/18 05:14:58;;;;;;;19.65;12.25;;;;;;;-5.28;80.40;102271.34;3435216;82;20957;-73
2022/12/18 05:19:49;;;;;;;16.93;10.40;;;;;;;-5.31;80.54;102277.01;3439201;82;21474;-72
2022/12/18 05:24:40;;;;;;;14.80;9.38;;;;;;;-5.29;80.54;102287.28;3419152;82;21142;-72
2022/12/18 05:29:31;;;;;;;17.70;10.00;;;;;;;-5.31;80.44;102287.50;3408003;82;21027;-73
2022/12/18 05:34:22;;;;;;;22.13;13.10;;;;;;;-5.30;80.58;102299.07;3400429;82;23354;-73
2022/12/18 05:39:13;;;;;;;18.60;10.80;;;;;;;-5.33;80.48;102302.92;3436101;81;21167;-72
2022/12/18 05:44:05;;;;;;;16.52;9.40;;;;;;;-5.34;80.50;102308.37;3408823;81;21239;-73
2022/12/18 05:49:01;;;;;;;21.00;12.05;;;;;;;-5.34;80.59;102318.89;3434581;82;20961;-73
2022/12/18 05:53:52;;;;;;;17.85;11.38;;;;;;;-5.37;80.33;102319.06;3429680;82;20965;-73
2022/12/18 05:58:44;;;;;;;20.60;12.45;;;;;;;-5.40;80.25;102330.17;3385599;82;21045;-73
2022/12/18 06:03:35;;;;;;;22.42;11.80;;;;;;;-5.45;80.27;102330.05;3377412;82;20996;-73
2022/12/18 06:08:26;;;;;;;17.85;10.35;;;;;;;-5.50;80.34;102334.98;3434652;82;21096;-72
2022/12/18 06:13:17;;;;;;;16.45;10.00;;;;;;;-5.53;80.39;102349.86;3432950;81;20931;-73
2022/12/18 06:18:09;;;;;;;17.87;9.48;;;;;;;-5.53;80.48;102363.80;3379057;83;20913;-73
2022/12/18 06:23:00;;;;;;;19.02;11.15;;;;;;;-5.54;80.25;102365.81;3420283;83;20979;-73
2022/12/18 06:27:51;;;;;;;17.98;11.10;;;;;;;-5.55;80.44;102366.54;3446248;81;20950;-73
2022/12/18 06:32:42;;;;;;;22.67;11.35;;;;;;;-5.59;80.08;102370.75;3451364;82;21944;-73
2022/12/18 06:37:33;;;;;;;26.37;13.70;;;;;;;-5.60;80.32;102388.88;3422228;81;20906;-73
2022/12/18 06:42:25;;;;;;;22.40;11.20;;;;;;;-5.59;80.31;102403.70;3417159;83;20926;-72
2022/12/18 06:47:16;;;;;;;21.02;11.48;;;;;;;-5.59;80.23;102420.17;3419626;81;21701;-73
2022/12/18 06:52:07;;;;;;;19.35;10.45;;;;;;;-5.59;80.33;102416.00;3423456;83;21284;-73
2022/12/18 06:56:58;;;;;;;21.55;12.47;;;;;;;-5.59;80.12;102432.84;3434382;82;21368;-73
2022/12/18 07:01:49;;;;;;;15.75;9.45;;;;;;;-5.57;80.21;102435.18;3415839;82;20979;-73
2022/12/18 07:06:40;;;;;;;22.55;12.68;;;;;;;-5.56;80.25;102443.33;3357301;83;21013;-73
2022/12/18 07:11:35;;;;;;;21.30;12.60;;;;;;;-5.51;80.50;102452.69;3401834;83;21012;-73
2022/12/18 07:16:28;;;;;;;23.92;14.03;;;;;;;-5.47;80.33;102464.61;3429710;82;20920;-72
2022/12/18 07:21:20;;;;;;;29.65;16.05;;;;;;;-5.40;80.48;102474.68;3409673;83;21136;-72
2022/12/18 07:26:13;;;;;;;25.82;14.45;;;;;;;-5.32;80.33;102482.22;3449302;81;20924;-73
2022/12/18 07:31:09;;;;;;;48.90;27.67;;;;;;;-5.26;80.23;102493.94;3415267;83;21567;-73
2022/12/18 07:36:03;;;;;;;31.02;17.37;;;;;;;-5.20;80.30;102499.66;3402753;81;20910;-73
2022/12/18 07:40:54;;;;;;;43.00;21.00;;;;;;;-5.14;80.12;102491.81;3439754;82;20945;-73
2022/12/18 07:45:45;;;;;;;34.67;16.52;;;;;;;-5.06;80.10;102497.36;3374244;83;21956;-72
2022/12/18 07:50:37;;;;;;;30.45;17.50;;;;;;;-5.00;79.95;102489.50;3416376;83;20905;-73
2022/12/18 07:55:30;;;;;;;35.75;20.15;;;;;;;-4.90;79.82;102500.26;3369655;82;20996;-73
2022/12/18 08:00:22;;;;;;;31.07;16.62;;;;;;;-4.84;79.76;102503.47;3404349;81;21043;-72
2022/12/18 08:05:13;;;;;;;35.58;20.17;;;;;;;-4.78;79.79;102520.61;3336675;81;20984;-72
2022/12/18 08:10:06;;;;;;;35.33;19.25;;;;;;;-4.75;79.49;102529.83;3367720;81;21188;-72
2022/12/18 08:14:57;;;;;;;50.75;24.02;;;;;;;-4.68;79.68;102539.91;3390497;82;20965;-73
2022/12/18 08:19:49;;;;;;;34.73;19.12;;;;;;;-4.54;79.73;102539.20;3383348;81;21075;-73
2022/12/18 08:24:40;;;;;;;42.33;19.90;;;;;;;-4.38;79.53;102549.34;3421330;81;20956;-73
2022/12/18 08:29:31;;;;;;;38.63;19.57;;;;;;;-4.31;79.35;102556.53;3394216;81;20972;-73
2022/12/18 08:34:23;;;;;;;34.08;18.85;;;;;;;-4.25;79.31;102566.44;3362267;81;21266;-73
2022/12/18 08:39:14;;;;;;;38.98;19.40;;;;;;;-4.13;79.09;102574.44;3400046;81;20945;-72
2022/12/18 08:49:15;;;;;;;43.28;24.00;;;;;;;-3.98;78.55;102586.23;3351107;83;21074;-73
2022/12/18 08:54:09;;;;;;;42.03;20.60;;;;;;;-3.96;78.85;102586.02;3306830;85;21039;-73
2022/12/18 08:59:00;;;;;;;41.68;22.87;;;;;;;-3.87;78.86;102588.24;3321698;84;21215;-73
2022/12/18 09:03:51;;;;;;;43.02;22.37;;;;;;;-3.79;78.89;102587.80;3286210;85;20995;-72
2022/12/18 09:08:44;;;;;;;41.75;21.77;;;;;;;-3.71;78.73;102589.86;3330064;84;20945;-73
2022/12/18 09:13:36;;;;;;;44.45;24.32;;;;;;;-3.67;78.44;102597.05;3283452;84;20995;-72
2022/12/18 09:18:27;;;;;;;53.08;28.62;;;;;;;-3.62;78.59;102603.52;3320533;84;20940;-72
2022/12/18 09:23:18;;;;;;;45.63;21.12;;;;;;;-3.53;78.66;102613.37;3369505;82;21983;-73
2022/12/18 09:28:16;;;;;;;48.13;22.77;;;;;;;-3.45;78.30;102618.90;3361289;81;20968;-72
2022/12/18 09:33:07;;;;;;;43.63;24.23;;;;;;;-3.42;78.48;102620.84;3411246;81;21120;-73
2022/12/18 09:37:58;;;;;;;49.73;23.62;;;;;;;-3.28;78.46;102615.92;3400016;81;20975;-73
2022/12/18 09:42:58;;;;;;;44.70;22.75;;;;;;;-3.19;78.33;102617.23;3389215;83;20965;-73
2022/12/18 09:47:52;;;;;;;43.98;22.98;;;;;;;-3.01;78.56;102619.11;3417023;81;21083;-73
2022/12/18 09:52:48;;;;;;;43.00;23.50;;;;;;;-2.79;77.88;102618.73;3438812;81;20967;-73
2022/12/18 09:57:44;;;;;;;44.63;23.92;;;;;;;-2.69;77.81;102621.48;3441880;83;20983;-73
2022/12/18 10:02:36;;;;;;;52.90;25.80;;;;;;;-2.43;77.81;102619.01;3414499;82;20937;-73
2022/12/18 10:07:41;;;;;;;39.50;21.23;;;;;;;-2.26;77.66;102614.68;3411769;81;21308;-73
2022/12/18 10:12:50;;;;;;;44.05;23.95;;;;;;;-2.23;77.13;102617.55;3440584;81;21182;-73
2022/12/18 10:17:50;;;;;;;43.48;22.55;;;;;;;-2.12;77.18;102617.83;3398869;81;20931;-74
2022/12/18 10:23:20;;;;;;;33.53;19.85;;;;;;;-2.02;76.44;102618.38;3412624;83;21583;-74
2022/12/18 10:28:15;;;;;;;47.17;24.65;;;;;;;-2.02;76.46;102617.10;3402587;82;20992;-73
2022/12/18 10:33:14;;;;;;;36.20;21.17;;;;;;;-2.01;76.62;102634.17;3439770;81;20925;-73
2022/12/18 10:38:13;;;;;;;42.58;22.35;;;;;;;-2.05;76.38;102639.73;3430758;81;21797;-73
2022/12/18 10:43:14;;;;;;;37.30;20.10;;;;;;;-1.93;76.61;102646.04;3417040;81;20946;-73
2022/12/18 10:48:21;;;;;;;33.35;18.60;;;;;;;-2.01;76.23;102641.83;3413686;81;20997;-73
2022/12/18 10:53:18;;;;;;;44.27;22.27;;;;;;;-2.22;75.93;102624.42;3420208;81;21017;-73
2022/12/18 10:58:26;;;;;;;40.80;22.13;;;;;;;-2.19;76.40;102625.63;3413277;82;20973;-73
2022/12/18 11:03:43;;;;;;;37.20;21.15;;;;;;;-2.21;76.11;102640.25;3396520;81;21237;-73
2022/12/18 11:08:36;;;;;;;35.20;21.70;;;;;;;-2.11;76.66;102639.11;3390691;81;20952;-73
2022/12/18 11:13:31;;;;;;;43.30;23.38;;;;;;;-2.10;76.13;102640.92;3440439;81;21626;-74
2022/12/18 11:18:33;;;;;;;41.28;25.10;;;;;;;-2.08;76.39;102649.62;3422308;81;21204;-74
2022/12/18 11:23:26;;;;;;;39.50;23.18;;;;;;;-1.99;76.54;102656.00;3389752;83;21036;-74
2022/12/18 11:28:52;;;;;;;50.05;26.73;;;;;;;-2.00;76.22;102652.95;3364311;81;21563;-73
2022/12/18 11:33:49;;;;;;;41.13;21.60;;;;;;;-2.01;76.03;102663.49;3447023;81;21522;-75
2022/12/18 11:38:44;;;;;;;48.77;26.53;;;;;;;-2.05;75.49;102666.50;3403351;81;21021;-74
2022/12/18 11:43:50;;;;;;;37.67;20.62;;;;;;;-2.08;76.04;102652.17;3425576;83;21522;-74
2022/12/18 11:48:52;;;;;;;45.50;24.80;;;;;;;-1.93;75.74;102658.79;3424121;81;20978;-73
2022/12/18 11:53:43;;;;;;;47.15;23.32;;;;;;;-1.83;75.69;102666.06;3417138;81;21182;-73
2022/12/18 11:58:49;;;;;;;46.88;26.27;;;;;;;-1.93;75.49;102671.54;3438078;82;20989;-74
2022/12/18 12:03:58;;;;;;;42.58;25.75;;;;;;;-1.99;75.63;102667.09;3467853;80;20917;-72
2022/12/18 12:09:06;;;;;;;48.17;26.05;;;;;;;-2.08;75.15;102659.81;3444167;81;20941;-73
2022/12/18 12:14:22;;;;;;;44.93;25.20;;;;;;;-2.16;75.78;102668.38;3312354;84;20955;-73
2022/12/18 12:19:28;;;;;;;39.78;21.35;;;;;;;-2.16;75.74;102670.53;3318876;84;22225;-73
2022/12/18 12:24:28;;;;;;;42.35;24.00;;;;;;;-2.04;75.11;102677.59;3307704;84;21533;-74
2022/12/18 12:29:30;;;;;;;46.02;25.30;;;;;;;-1.97;75.54;102688.91;3301075;84;21177;-74
2022/12/18 12:34:39;;;;;;;48.80;25.43;;;;;;;-2.06;75.35;102685.46;3285404;84;21442;-73
2022/12/18 12:39:37;;;;;;;51.35;26.70;;;;;;;-2.09;75.47;102687.34;3309440;84;21043;-74
2022/12/18 12:44:46;;;;;;;49.85;27.37;;;;;;;-2.00;75.67;102680.98;3306252;84;22354;-74
2022/12/18 12:49:39;;;;;;;50.70;26.12;;;;;;;-2.07;75.32;102688.78;3378014;81;21027;-73
2022/12/18 12:54:33;;;;;;;51.88;27.48;;;;;;;-2.15;75.43;102705.45;3450880;81;20948;-73
2022/12/18 12:59:47;;;;;;;51.88;25.48;;;;;;;-2.24;75.76;102718.94;3446133;81;21420;-73
2022/12/18 13:04:46;;;;;;;47.08;23.75;;;;;;;-2.36;75.50;102724.61;3475254;80;20972;-73
2022/12/18 13:10:12;;;;;;;49.15;25.08;;;;;;;-2.51;75.80;102729.41;3431107;82;22719;-74
2022/12/18 13:15:29;;;;;;;48.10;24.65;;;;;;;-2.65;75.80;102733.09;3364476;82;21044;-73
2022/12/18 13:20:21;;;;;;;39.03;20.90;;;;;;;-2.79;76.01;102729.14;3385868;82;21486;-74
2022/12/18 13:25:34;;;;;;;53.68;26.65;;;;;;;-2.89;76.17;102746.75;3399952;83;21035;-73
2022/12/18 13:30:37;;;;;;;51.37;25.70;;;;;;;-2.96;76.43;102754.50;3368551;82;22056;-73
2022/12/18 13:35:39;;;;;;;42.45;24.12;;;;;;;-3.01;76.63;102758.20;3418207;82;20988;-73
2022/12/18 13:40:51;;;;;;;45.52;24.12;;;;;;;-3.18;76.36;102757.35;3397453;82;20996;-73
2022/12/18 13:45:46;;;;;;;51.20;23.35;;;;;;;-3.20;76.95;102761.38;3379996;82;22044;-73
2022/12/18 13:50:39;;;;;;;44.85;23.80;;;;;;;-3.24;77.04;102771.95;3376350;82;20980;-73
2022/12/18 13:55:30;;;;;;;40.48;20.75;;;;;;;-3.30;76.88;102766.23;3384290;83;21546;-73
2022/12/18 14:00:28;;;;;;;44.20;22.30;;;;;;;-3.39;76.99;102769.08;3371234;82;21129;-74
2022/12/18 14:05:33;;;;;;;49.42;24.20;;;;;;;-3.50;77.08;102763.75;3393630;82;21107;-73
2022/12/18 14:10:24;;;;;;;44.18;22.75;;;;;;;-3.58;77.25;102773.47;3391748;82;21082;-73
2022/12/18 14:15:24;;;;;;;45.73;21.15;;;;;;;-3.63;77.47;102789.90;3445665;81;21424;-73
2022/12/18 14:20:17;;;;;;;46.85;22.22;;;;;;;-3.64;77.46;102790.62;3397904;81;20948;-73
2022/12/18 14:25:25;;;;;;;42.75;22.20;;;;;;;-3.71;77.49;102795.78;3423283;81;21807;-73
2022/12/18 14:30:31;;;;;;;40.28;22.27;;;;;;;-3.76;77.63;102799.09;3419958;83;21507;-73
2022/12/18 14:35:23;;;;;;;46.28;24.45;;;;;;;-3.80;77.77;102798.23;3466679;81;21052;-73
2022/12/18 14:40:14;;;;;;;41.08;20.12;;;;;;;-3.80;78.06;102816.41;3443747;81;21028;-74
2022/12/18 14:45:36;;;;;;;45.25;23.32;;;;;;;-3.88;77.94;102815.21;3443922;81;20949;-77
2022/12/18 14:50:28;;;;;;;44.95;23.12;;;;;;;-3.92;78.12;102818.12;3462636;80;20953;-72
2022/12/18 14:55:21;;;;;;;48.45;23.85;;;;;;;-3.90;78.31;102813.22;3408443;81;20988;-72
2022/12/18 15:00:19;;;;;;;48.63;23.57;;;;;;;-3.92;78.25;102814.70;3384789;81;20965;-72
2022/12/18 15:05:30;;;;;;;42.38;19.48;;;;;;;-3.94;78.47;102819.61;3401088;81;20962;-72
2022/12/18 15:10:29;;;;;;;45.67;23.57;;;;;;;-3.96;78.44;102822.35;3433735;82;21259;-73
2022/12/18 15:15:44;;;;;;;44.05;24.85;;;;;;;-3.95;78.72;102828.33;3390473;83;21342;-73
2022/12/18 15:21:00;;;;;;;42.90;20.32;;;;;;;-3.99;78.39;102827.09;3434549;81;20992;-72
2022/12/18 15:26:00;;;;;;;42.05;22.20;;;;;;;-3.97;78.71;102825.66;3355973;81;21000;-73
2022/12/18 15:31:11;;;;;;;52.50;25.30;;;;;;;-3.98;78.63;102835.27;3436632;81;21039;-72
2022/12/18 15:36:12;;;;;;;39.90;21.75;;;;;;;-3.97;78.76;102833.62;3379236;82;21295;-73
2022/12/18 15:41:04;;;;;;;51.90;24.72;;;;;;;-4.02;78.62;102841.66;3434404;81;22543;-72
2022/12/18 15:45:56;;;;;;;50.33;25.80;;;;;;;-4.01;78.82;102842.55;3430400;81;20972;-73
2022/12/18 15:50:47;;;;;;;49.85;23.70;;;;;;;-3.98;78.98;102853.06;3424071;81;21023;-73
2022/12/18 16:00:48;;;;;;;42.78;20.95;;;;;;;-4.02;78.53;102859.44;3400924;81;21516;-72
2022/12/18 16:05:39;;;;;;;41.33;21.37;;;;;;;-4.06;78.78;102864.00;3431220;81;22052;-73
2022/12/18 16:10:31;;;;;;;35.30;20.23;;;;;;;-4.07;78.74;102865.66;3439063;81;21035;-72
2022/12/18 16:15:23;;;;;;;35.70;18.37;;;;;;;-4.10;78.58;102872.92;3442483;81;20980;-73
2022/12/18 16:20:20;;;;;;;37.60;19.50;;;;;;;-4.10;78.92;102874.20;3400081;81;21060;-72
2022/12/18 16:25:23;;;;;;;30.48;16.40;;;;;;;-4.13;78.75;102867.53;3370423;81;21040;-72
2022/12/18 16:30:18;;;;;;;30.97;15.70;;;;;;;-4.14;78.67;102861.90;3386862;81;21144;-73
2022/12/18 16:35:16;;;;;;;42.70;22.27;;;;;;;-4.20;78.66;102859.97;3386039;81;20931;-73
2022/12/18 16:40:10;;;;;;;;;;;;;;;-4.21;79.01;102870.47;3458006;80;20957;-73
2022/12/18 16:45:02;;;;;;;46.13;23.87;;;;;;;-4.20;78.98;102875.21;3442258;81;20152;-72
2022/12/18 16:49:53;;;;;;;45.03;24.23;;;;;;;-4.19;79.14;102869.75;3410670;83;21051;-72
2022/12/18 16:54:44;;;;;;;46.73;22.65;;;;;;;-4.21;78.97;102874.28;3376846;81;21093;-72
2022/12/18 16:59:36;;;;;;;46.65;22.65;;;;;;;-4.21;79.05;102871.74;3440589;81;21063;-72
2022/12/18 17:04:27;;;;;;;40.43;21.95;;;;;;;-4.21;79.13;102884.44;3394466;81;20941;-73
2022/12/18 17:09:26;;;;;;;37.10;20.23;;;;;;;-4.21;79.14;102881.01;3424379;81;20961;-72
2022/12/18 17:14:22;;;;;;;46.33;22.62;;;;;;;-4.22;79.18;102881.73;3425491;81;20988;-72
2022/12/18 17:19:15;;;;;;;43.65;21.20;;;;;;;-4.27;79.14;102878.70;3438679;81;21045;-72
2022/12/18 17:24:07;;;;;;;38.28;19.65;;;;;;;-4.31;78.95;102893.41;3397945;81;20988;-73
2022/12/18 17:28:58;;;;;;;34.83;17.00;;;;;;;-4.34;78.97;102904.15;3472783;81;20942;-72
2022/12/18 17:33:51;;;;;;;36.95;21.12;;;;;;;-4.37;78.94;102908.88;3406189;83;20953;-73
2022/12/18 17:38:51;;;;;;;37.38;18.52;;;;;;;-4.39;79.04;102898.02;3402905;83;21011;-73
2022/12/18 17:43:52;;;;;;;45.08;22.65;;;;;;;-4.42;79.01;102899.83;3422609;81;21288;-73
2022/12/18 17:48:44;;;;;;;42.08;23.10;;;;;;;-4.44;79.05;102897.49;3437059;81;21491;-72
2022/12/18 17:53:40;;;;;;;40.25;21.52;;;;;;;-4.49;78.89;102899.88;3441980;81;21076;-73
2022/12/18 17:58:37;;;;;;;39.10;22.05;;;;;;;-4.53;78.92;102896.47;3418378;81;20937;-73
2022/12/18 18:03:28;;;;;;;40.45;23.27;;;;;;;-4.60;78.97;102897.06;3442490;81;21030;-72
2022/12/18 18:08:19;;;;;;;36.83;20.43;;;;;;;-4.56;79.15;102911.00;3394959;81;21011;-72
2022/12/18 18:18:30;;;;;;;45.43;23.60;;;;;;;-4.62;78.99;102939.11;3442336;81;20945;-73
2022/12/18 18:23:21;;;;;;;51.68;25.12;;;;;;;-4.63;79.18;102925.91;3421305;81;21625;-73
2022/12/18 18:28:13;;;;;;;49.27;24.27;;;;;;;-4.62;79.23;102928.95;3396642;83;20932;-73
2022/12/18 18:33:04;;;;;;;42.90;21.40;;;;;;;-4.60;79.36;102919.91;3389882;81;22628;-74
2022/12/18 18:37:55;;;;;;;43.73;23.52;;;;;;;-4.63;79.04;102910.67;3369380;81;21014;-73
2022/12/18 18:42:47;;;;;;;41.53;21.73;;;;;;;-4.71;78.98;102920.30;3414426;81;20957;-73
2022/12/18 18:47:38;;;;;;;36.75;20.52;;;;;;;-4.71;79.10;102933.00;3416338;81;21078;-73
2022/12/18 18:52:29;;;;;;;44.85;23.67;;;;;;;-4.73;79.13;102928.48;3413338;81;20971;-73
2022/12/18 18:57:21;;;;;;;48.30;25.57;;;;;;;-4.74;79.28;102950.41;3378995;81;22839;-73
2022/12/18 19:02:13;;;;;;;46.10;24.10;;;;;;;-4.74;79.23;102938.98;3410436;81;20980;-73
2022/12/18 19:07:05;;;;;;;49.50;22.67;;;;;;;-4.74;79.19;102931.37;3387843;81;20984;-73
2022/12/18 19:17:10;;;;;;;39.88;19.60;;;;;;;-4.80;79.27;102926.88;3396654;81;21735;-72
2022/12/18 19:22:01;;;;;;;37.42;19.25;;;;;;;-4.80;79.32;102916.73;3393016;81;20990;-73
2022/12/18 19:26:52;;;;;;;37.17;19.82;;;;;;;-4.83;79.35;102920.17;3418282;81;21621;-73
2022/12/18 19:31:44;;;;;;;30.90;18.27;;;;;;;-4.86;79.34;102938.88;3465271;81;20992;-73
2022/12/18 19:36:38;;;;;;;27.98;14.03;;;;;;;-4.92;79.03;102941.97;3443519;81;22286;-72
2022/12/18 19:41:29;;;;;;;34.43;18.23;;;;;;;-4.98;79.09;102939.27;3388444;81;20914;-72
2022/12/18 19:46:23;;;;;;;34.53;18.80;;;;;;;-4.94;79.38;102942.16;3445561;81;21087;-73
2022/12/18 19:51:22;;;;;;;39.55;21.07;;;;;;;-4.94;79.38;102955.74;3440281;80;21452;-73
2022/12/18 19:56:17;;;;;;;33.13;17.87;;;;;;;-4.89;79.55;102961.36;3389367;81;21012;-72
2022/12/18 20:01:12;;;;;;;35.50;20.70;;;;;;;-4.86;79.54;102960.45;3422135;81;21575;-72
2022/12/18 20:06:10;;;;;;;37.78;20.48;;;;;;;-4.86;79.46;102971.88;3396511;81;20996;-72
2022/12/18 20:11:02;;;;;;;44.18;20.12;;;;;;;-4.84;79.62;102961.53;3363290;81;21965;-73
2022/12/18 20:15:53;;;;;;;36.05;19.60;;;;;;;-4.87;79.47;102951.91;3401980;82;21525;-72
2022/12/18 20:20:44;;;;;;;40.92;20.15;;;;;;;-4.88;79.54;102953.00;3357426;82;20942;-73
2022/12/18 20:25:37;;;;;;;27.05;15.23;;;;;;;-4.88;79.60;102960.27;3403367;82;20957;-72
2022/12/18 20:30:29;;;;;;;35.10;17.60;;;;;;;-4.89;79.46;102949.94;3398838;82;20969;-73
2022/12/18 20:35:20;;;;;;;28.35;14.45;;;;;;;-4.94;79.36;102957.02;3338564;82;22647;-73
2022/12/18 20:40:13;;;;;;;32.63;16.50;;;;;;;-5.00;79.18;102958.48;3368023;82;20999;-72
2022/12/18 20:45:06;;;;;;;29.80;15.18;;;;;;;-5.05;79.35;102945.63;3394436;82;21013;-72
2022/12/18 20:49:59;;;;;;;28.80;16.48;;;;;;;-5.05;79.54;102946.90;3389616;82;22132;-72
2022/12/18 20:54:50;;;;;;;31.93;15.30;;;;;;;-5.04;79.41;102951.26;3374437;82;21564;-73
2022/12/18 20:59:41;;;;;;;28.75;14.55;;;;;;;-5.02;79.46;102943.83;3388117;82;21531;-72
2022/12/18 21:04:33;;;;;;;28.20;14.93;;;;;;;-5.03;79.43;102956.86;3356074;82;21655;-73
2022/12/18 21:09:24;;;;;;;27.35;13.50;;;;;;;-5.04;79.30;102971.55;3380002;82;20984;-73
2022/12/18 21:14:22;;;;;;;28.05;14.98;;;;;;;-5.05;79.24;102976.08;3384589;82;21003;-73
2022/12/18 21:19:23;;;;;;;30.15;15.25;;;;;;;-5.12;79.04;102991.69;3464360;80;20967;-73
2022/12/18 21:24:15;;;;;;;18.82;10.82;;;;;;;-5.16;79.22;102985.34;3418359;81;21409;-73
2022/12/18 21:29:10;;;;;;;21.95;12.53;;;;;;;-5.20;79.17;102974.31;3442097;81;20886;-73
2022/12/18 21:34:02;;;;;;;27.25;13.98;;;;;;;-5.22;79.11;102969.44;3386996;81;21449;-72
2022/12/18 21:38:54;;;;;;;27.55;13.13;;;;;;;-5.25;79.27;102972.50;3469762;81;20988;-73
2022/12/18 21:48:55;;;;;;;27.10;13.30;;;;;;;-5.24;79.40;102963.25;3414388;81;21476;-73
2022/12/18 21:53:46;;;;;;;29.50;15.25;;;;;;;-5.23;79.35;102952.39;3472229;81;20966;-73
2022/12/18 21:58:38;;;;;;;29.65;15.05;;;;;;;-5.22;79.38;102950.41;3445404;81;21435;-73
2022/12/18 22:03:29;;;;;;;32.48;14.93;;;;;;;-5.32;78.93;102938.27;3376893;81;20989;-73
2022/12/18 22:08:20;;;;;;;25.12;12.78;;;;;;;-5.36;79.13;102929.41;3394660;81;38661;-74
2022/12/18 22:13:12;;;;;;;28.85;15.10;;;;;;;-5.39;78.96;102916.73;3428677;81;27276;-73
2022/12/18 22:18:03;;;;;;;31.57;14.45;;;;;;;-5.44;79.00;102904.78;3375215;82;21014;-73
2022/12/18 22:22:55;;;;;;;32.63;14.18;;;;;;;-5.47;79.10;102895.91;3359571;82;20984;-73
2022/12/18 22:30:02;;;;;;;29.15;14.98;;;;;;;-5.48;79.24;102895.02;3400716;82;20986;-73
2022/12/18 22:32:40;;;;;;;28.35;13.98;;;;;;;-5.49;79.23;102878.02;3369988;82;20956;-73
2022/12/18 22:37:32;;;;;;;24.25;12.85;;;;;;;-5.50;79.13;102869.86;3380183;82;21566;-74
2022/12/18 22:42:23;;;;;;;27.77;13.43;;;;;;;-5.50;79.31;102869.86;3380551;82;20984;-74
2022/12/18 22:47:15;;;;;;;27.52;13.13;;;;;;;-5.51;79.08;102870.57;3393059;82;21209;-73
2022/12/18 22:52:10;;;;;;;26.40;13.68;;;;;;;-5.56;78.99;102867.89;3374785;82;20978;-73
2022/12/18 22:57:01;;;;;;;26.60;12.50;;;;;;;-5.59;79.18;102873.87;3371811;82;20948;-73